sensor_id;sensor_type;location;lat;lon;timestamp;temperature;humidity
1680;DHT22;838;51.794;12.258;2023-09-30T00:01:02;17.50;45.10
1680;DHT22;838;51.794;12.258;2023-09-30T00:03:28;17.40;46.50
1680;DHT22;838;51.794;12.258;2023-09-30T00:05:54;17.30;47.70
1680;DHT22;838;51.794;12.258;2023-09-30T00:08:20;17.20;49.20
1680;DHT22;838;51.794;12.258;2023-09-30T00:10:46;17.20;49.60
1680;DHT22;838;51.794;12.258;2023-09-30T00:13:12;17.10;49.90
1680;DHT22;838;51.794;12.258;2023-09-30T00:15:38;17.20;50.10
1680;DHT22;838;51.794;12.258;2023-09-30T00:18:07;17.20;49.40
1680;DHT22;838;51.794;12.258;2023-09-30T00:20:33;17.20;48.50
1680;DHT22;838;51.794;12.258;2023-09-30T00:22:58;17.00;48.70
1680;DHT22;838;51.794;12.258;2023-09-30T00:25:24;16.90;49.00
1680;DHT22;838;51.794;12.258;2023-09-30T00:27:50;16.90;48.90
1680;DHT22;838;51.794;12.258;2023-09-30T00:30:15;16.80;50.40
1680;DHT22;838;51.794;12.258;2023-09-30T00:32:41;16.70;51.40
1680;DHT22;838;51.794;12.258;2023-09-30T00:35:07;16.60;51.90
1680;DHT22;838;51.794;12.258;2023-09-30T00:37:40;16.50;52.60
1680;DHT22;838;51.794;12.258;2023-09-30T00:40:09;16.50;53.20
1680;DHT22;838;51.794;12.258;2023-09-30T00:42:39;16.40;53.60
1680;DHT22;838;51.794;12.258;2023-09-30T00:45:05;16.40;54.20
1680;DHT22;838;51.794;12.258;2023-09-30T00:47:33;16.30;54.60
1680;DHT22;838;51.794;12.258;2023-09-30T00:49:59;16.30;55.10
1680;DHT22;838;51.794;12.258;2023-09-30T00:52:25;16.20;55.50
1680;DHT22;838;51.794;12.258;2023-09-30T00:54:53;16.20;55.30
1680;DHT22;838;51.794;12.258;2023-09-30T00:57:20;16.20;55.50
1680;DHT22;838;51.794;12.258;2023-09-30T00:59:47;16.20;56.30
1680;DHT22;838;51.794;12.258;2023-09-30T01:02:14;16.20;55.10
1680;DHT22;838;51.794;12.258;2023-09-30T01:04:40;16.10;55.40
1680;DHT22;838;51.794;12.258;2023-09-30T01:07:06;16.10;55.80
1680;DHT22;838;51.794;12.258;2023-09-30T01:09:32;16.10;56.00
1680;DHT22;838;51.794;12.258;2023-09-30T01:11:59;16.10;55.90
1680;DHT22;838;51.794;12.258;2023-09-30T01:14:32;16.00;56.50
1680;DHT22;838;51.794;12.258;2023-09-30T01:17:00;16.00;57.00
1680;DHT22;838;51.794;12.258;2023-09-30T01:19:26;16.10;56.40
1680;DHT22;838;51.794;12.258;2023-09-30T01:21:59;16.20;55.40
1680;DHT22;838;51.794;12.258;2023-09-30T01:24:26;16.30;54.20
1680;DHT22;838;51.794;12.258;2023-09-30T01:26:52;16.40;53.30
1680;DHT22;838;51.794;12.258;2023-09-30T01:29:18;16.50;50.70
1680;DHT22;838;51.794;12.258;2023-09-30T01:31:44;16.60;50.90
1680;DHT22;838;51.794;12.258;2023-09-30T01:34:14;16.40;51.10
1680;DHT22;838;51.794;12.258;2023-09-30T01:36:41;16.30;52.40
1680;DHT22;838;51.794;12.258;2023-09-30T01:39:07;16.10;54.60
1680;DHT22;838;51.794;12.258;2023-09-30T01:41:33;16.00;56.70
1680;DHT22;838;51.794;12.258;2023-09-30T01:44:00;15.90;57.30
1680;DHT22;838;51.794;12.258;2023-09-30T01:46:25;15.80;58.20
1680;DHT22;838;51.794;12.258;2023-09-30T01:48:52;15.70;58.90
1680;DHT22;838;51.794;12.258;2023-09-30T01:51:18;15.70;60.00
1680;DHT22;838;51.794;12.258;2023-09-30T01:53:44;15.60;59.50
1680;DHT22;838;51.794;12.258;2023-09-30T01:56:09;15.60;60.50
1680;DHT22;838;51.794;12.258;2023-09-30T01:58:35;15.50;61.60
1680;DHT22;838;51.794;12.258;2023-09-30T02:01:05;15.40;62.10
1680;DHT22;838;51.794;12.258;2023-09-30T02:03:31;15.40;62.70
1680;DHT22;838;51.794;12.258;2023-09-30T02:05:59;15.40;62.70
1680;DHT22;838;51.794;12.258;2023-09-30T02:08:25;15.30;63.90
1680;DHT22;838;51.794;12.258;2023-09-30T02:10:51;15.20;64.70
1680;DHT22;838;51.794;12.258;2023-09-30T02:13:17;15.20;65.40
1680;DHT22;838;51.794;12.258;2023-09-30T02:15:43;15.20;65.60
1680;DHT22;838;51.794;12.258;2023-09-30T02:18:09;15.20;65.10
1680;DHT22;838;51.794;12.258;2023-09-30T02:20:36;15.20;65.60
1680;DHT22;838;51.794;12.258;2023-09-30T02:23:14;15.10;66.20
1680;DHT22;838;51.794;12.258;2023-09-30T02:25:42;15.10;66.10
1680;DHT22;838;51.794;12.258;2023-09-30T02:28:09;15.20;65.40
1680;DHT22;838;51.794;12.258;2023-09-30T02:30:35;15.20;64.30
1680;DHT22;838;51.794;12.258;2023-09-30T02:33:01;15.30;63.10
1680;DHT22;838;51.794;12.258;2023-09-30T02:35:27;15.30;62.00
1680;DHT22;838;51.794;12.258;2023-09-30T02:37:53;15.20;63.30
1680;DHT22;838;51.794;12.258;2023-09-30T02:40:20;15.20;63.50
1680;DHT22;838;51.794;12.258;2023-09-30T02:42:46;15.20;62.90
1680;DHT22;838;51.794;12.258;2023-09-30T02:45:16;15.20;63.80
1680;DHT22;838;51.794;12.258;2023-09-30T02:47:45;15.20;61.30
1680;DHT22;838;51.794;12.258;2023-09-30T02:50:11;15.10;62.60
1680;DHT22;838;51.794;12.258;2023-09-30T02:52:37;15.10;62.80
1680;DHT22;838;51.794;12.258;2023-09-30T02:55:04;15.00;64.40
1680;DHT22;838;51.794;12.258;2023-09-30T02:57:30;15.00;64.50
1680;DHT22;838;51.794;12.258;2023-09-30T02:59:56;14.90;65.30
1680;DHT22;838;51.794;12.258;2023-09-30T03:02:24;14.80;66.60
1680;DHT22;838;51.794;12.258;2023-09-30T03:04:50;14.80;65.90
1680;DHT22;838;51.794;12.258;2023-09-30T03:07:18;14.80;65.50
1680;DHT22;838;51.794;12.258;2023-09-30T03:09:45;14.80;65.40
1680;DHT22;838;51.794;12.258;2023-09-30T03:12:13;14.90;65.50
1680;DHT22;838;51.794;12.258;2023-09-30T03:14:39;14.80;65.20
1680;DHT22;838;51.794;12.258;2023-09-30T03:17:05;14.70;64.90
1680;DHT22;838;51.794;12.258;2023-09-30T03:19:37;14.70;65.30
1680;DHT22;838;51.794;12.258;2023-09-30T03:22:03;14.70;64.90
1680;DHT22;838;51.794;12.258;2023-09-30T03:24:30;14.70;64.00
1680;DHT22;838;51.794;12.258;2023-09-30T03:26:57;14.70;64.70
1680;DHT22;838;51.794;12.258;2023-09-30T03:29:23;14.60;64.20
1680;DHT22;838;51.794;12.258;2023-09-30T03:31:49;14.70;64.50
1680;DHT22;838;51.794;12.258;2023-09-30T03:34:14;14.60;64.20
1680;DHT22;838;51.794;12.258;2023-09-30T03:36:42;14.50;66.20
1680;DHT22;838;51.794;12.258;2023-09-30T03:39:08;14.50;66.40
1680;DHT22;838;51.794;12.258;2023-09-30T03:41:34;14.60;64.90
1680;DHT22;838;51.794;12.258;2023-09-30T03:44:02;14.60;64.60
1680;DHT22;838;51.794;12.258;2023-09-30T03:46:28;14.50;65.50
1680;DHT22;838;51.794;12.258;2023-09-30T03:48:53;14.60;64.50
1680;DHT22;838;51.794;12.258;2023-09-30T03:51:21;14.50;65.40
1680;DHT22;838;51.794;12.258;2023-09-30T03:53:51;14.50;65.60
1680;DHT22;838;51.794;12.258;2023-09-30T03:56:17;14.60;65.20
1680;DHT22;838;51.794;12.258;2023-09-30T03:58:44;14.60;64.50
1680;DHT22;838;51.794;12.258;2023-09-30T04:01:14;14.50;65.00
1680;DHT22;838;51.794;12.258;2023-09-30T04:03:40;14.60;64.70
1680;DHT22;838;51.794;12.258;2023-09-30T04:06:07;14.60;64.60
1680;DHT22;838;51.794;12.258;2023-09-30T04:08:33;14.50;65.10
1680;DHT22;838;51.794;12.258;2023-09-30T04:10:59;14.70;65.00
1680;DHT22;838;51.794;12.258;2023-09-30T04:13:26;14.80;62.50
1680;DHT22;838;51.794;12.258;2023-09-30T04:15:52;15.00;59.30
1680;DHT22;838;51.794;12.258;2023-09-30T04:18:18;15.10;57.00
1680;DHT22;838;51.794;12.258;2023-09-30T04:20:46;15.00;56.80
1680;DHT22;838;51.794;12.258;2023-09-30T04:23:12;14.80;59.50
1680;DHT22;838;51.794;12.258;2023-09-30T04:25:38;14.50;63.50
1680;DHT22;838;51.794;12.258;2023-09-30T04:28:05;14.50;63.20
1680;DHT22;838;51.794;12.258;2023-09-30T04:30:32;14.40;63.40
1680;DHT22;838;51.794;12.258;2023-09-30T04:33:01;14.40;63.00
1680;DHT22;838;51.794;12.258;2023-09-30T04:35:30;14.40;63.90
1680;DHT22;838;51.794;12.258;2023-09-30T04:37:56;14.50;62.60
1680;DHT22;838;51.794;12.258;2023-09-30T04:40:26;14.60;60.70
1680;DHT22;838;51.794;12.258;2023-09-30T04:42:52;14.70;60.80
1680;DHT22;838;51.794;12.258;2023-09-30T04:45:26;14.70;59.70
1680;DHT22;838;51.794;12.258;2023-09-30T04:47:53;14.70;60.80
1680;DHT22;838;51.794;12.258;2023-09-30T04:50:19;14.90;57.60
1680;DHT22;838;51.794;12.258;2023-09-30T04:52:47;15.10;56.20
1680;DHT22;838;51.794;12.258;2023-09-30T04:55:13;15.20;52.70
1680;DHT22;838;51.794;12.258;2023-09-30T04:57:44;15.20;51.40
1680;DHT22;838;51.794;12.258;2023-09-30T05:00:14;15.10;51.30
1680;DHT22;838;51.794;12.258;2023-09-30T05:02:45;15.20;51.40
1680;DHT22;838;51.794;12.258;2023-09-30T05:05:11;15.40;48.00
1680;DHT22;838;51.794;12.258;2023-09-30T05:07:37;15.40;46.90
1680;DHT22;838;51.794;12.258;2023-09-30T05:10:03;15.40;47.40
1680;DHT22;838;51.794;12.258;2023-09-30T05:12:36;15.40;47.50
1680;DHT22;838;51.794;12.258;2023-09-30T05:15:03;15.40;47.30
1680;DHT22;838;51.794;12.258;2023-09-30T05:17:29;15.30;46.20
1680;DHT22;838;51.794;12.258;2023-09-30T05:19:57;15.40;46.10
1680;DHT22;838;51.794;12.258;2023-09-30T05:22:23;15.30;45.90
1680;DHT22;838;51.794;12.258;2023-09-30T05:24:53;15.30;46.40
1680;DHT22;838;51.794;12.258;2023-09-30T05:27:19;15.40;44.80
1680;DHT22;838;51.794;12.258;2023-09-30T05:29:45;15.50;44.20
1680;DHT22;838;51.794;12.258;2023-09-30T05:32:11;15.50;42.50
1680;DHT22;838;51.794;12.258;2023-09-30T05:34:37;15.50;43.60
1680;DHT22;838;51.794;12.258;2023-09-30T05:37:04;15.50;43.20
1680;DHT22;838;51.794;12.258;2023-09-30T05:39:30;15.40;43.90
1680;DHT22;838;51.794;12.258;2023-09-30T05:42:00;15.40;44.10
1680;DHT22;838;51.794;12.258;2023-09-30T05:44:25;15.50;43.70
1680;DHT22;838;51.794;12.258;2023-09-30T05:46:54;15.40;43.80
1680;DHT22;838;51.794;12.258;2023-09-30T05:49:20;15.40;43.80
1680;DHT22;838;51.794;12.258;2023-09-30T05:51:46;15.40;42.20
1680;DHT22;838;51.794;12.258;2023-09-30T05:54:12;15.30;43.80
1680;DHT22;838;51.794;12.258;2023-09-30T05:56:38;15.20;46.50
1680;DHT22;838;51.794;12.258;2023-09-30T05:59:05;15.00;47.70
1680;DHT22;838;51.794;12.258;2023-09-30T06:01:32;14.90;48.50
1680;DHT22;838;51.794;12.258;2023-09-30T06:03:58;15.00;49.60
1680;DHT22;838;51.794;12.258;2023-09-30T06:06:25;15.00;49.60
1680;DHT22;838;51.794;12.258;2023-09-30T06:08:52;15.00;49.20
1680;DHT22;838;51.794;12.258;2023-09-30T06:13:45;15.00;49.70
1680;DHT22;838;51.794;12.258;2023-09-30T06:16:12;15.00;50.20
1680;DHT22;838;51.794;12.258;2023-09-30T06:18:38;15.10;48.80
1680;DHT22;838;51.794;12.258;2023-09-30T06:21:04;15.10;50.20
1680;DHT22;838;51.794;12.258;2023-09-30T06:23:30;15.30;48.50
1680;DHT22;838;51.794;12.258;2023-09-30T06:25:57;15.50;46.80
1680;DHT22;838;51.794;12.258;2023-09-30T06:28:24;15.60;44.40
1680;DHT22;838;51.794;12.258;2023-09-30T06:30:54;15.70;44.60
1680;DHT22;838;51.794;12.258;2023-09-30T06:33:21;15.60;45.30
1680;DHT22;838;51.794;12.258;2023-09-30T06:35:47;15.70;43.40
1680;DHT22;838;51.794;12.258;2023-09-30T06:38:19;15.80;45.50
1680;DHT22;838;51.794;12.258;2023-09-30T06:40:45;15.90;42.00
1680;DHT22;838;51.794;12.258;2023-09-30T06:43:16;16.10;40.40
1680;DHT22;838;51.794;12.258;2023-09-30T06:45:42;16.20;39.10
1680;DHT22;838;51.794;12.258;2023-09-30T06:48:09;16.30;39.00
1680;DHT22;838;51.794;12.258;2023-09-30T06:50:48;16.40;39.30
1680;DHT22;838;51.794;12.258;2023-09-30T06:53:15;16.50;37.00
1680;DHT22;838;51.794;12.258;2023-09-30T06:55:42;16.70;33.80
1680;DHT22;838;51.794;12.258;2023-09-30T06:58:09;16.80;34.20
1680;DHT22;838;51.794;12.258;2023-09-30T07:00:37;17.00;34.10
1680;DHT22;838;51.794;12.258;2023-09-30T07:03:03;17.20;30.40
1680;DHT22;838;51.794;12.258;2023-09-30T07:05:29;17.10;30.30
1680;DHT22;838;51.794;12.258;2023-09-30T07:07:55;17.20;30.00
1680;DHT22;838;51.794;12.258;2023-09-30T07:10:21;17.20;30.70
1680;DHT22;838;51.794;12.258;2023-09-30T07:12:50;17.50;28.10
1680;DHT22;838;51.794;12.258;2023-09-30T07:15:16;17.30;28.70
1680;DHT22;838;51.794;12.258;2023-09-30T07:17:42;17.30;28.10
1680;DHT22;838;51.794;12.258;2023-09-30T07:20:09;17.20;28.60
1680;DHT22;838;51.794;12.258;2023-09-30T07:22:35;17.20;30.10
1680;DHT22;838;51.794;12.258;2023-09-30T07:25:01;17.10;29.10
1680;DHT22;838;51.794;12.258;2023-09-30T07:27:27;17.20;29.20
1680;DHT22;838;51.794;12.258;2023-09-30T07:29:53;17.20;28.00
1680;DHT22;838;51.794;12.258;2023-09-30T07:32:19;17.20;29.10
1680;DHT22;838;51.794;12.258;2023-09-30T07:34:48;17.20;30.00
1680;DHT22;838;51.794;12.258;2023-09-30T07:37:17;17.30;30.10
1680;DHT22;838;51.794;12.258;2023-09-30T07:39:46;17.60;29.40
1680;DHT22;838;51.794;12.258;2023-09-30T07:42:11;18.00;26.40
1680;DHT22;838;51.794;12.258;2023-09-30T07:44:38;18.10;23.50
1680;DHT22;838;51.794;12.258;2023-09-30T07:47:04;18.00;24.00
1680;DHT22;838;51.794;12.258;2023-09-30T07:49:32;18.10;22.80
1680;DHT22;838;51.794;12.258;2023-09-30T07:51:58;17.90;23.70
1680;DHT22;838;51.794;12.258;2023-09-30T07:54:24;17.60;25.20
1680;DHT22;838;51.794;12.258;2023-09-30T07:56:50;17.40;27.20
1680;DHT22;838;51.794;12.258;2023-09-30T07:59:15;17.40;27.30
1680;DHT22;838;51.794;12.258;2023-09-30T08:01:41;17.40;26.80
1680;DHT22;838;51.794;12.258;2023-09-30T08:04:07;17.40;27.10
1680;DHT22;838;51.794;12.258;2023-09-30T08:06:33;17.60;26.30
1680;DHT22;838;51.794;12.258;2023-09-30T08:08:58;17.50;26.20
1680;DHT22;838;51.794;12.258;2023-09-30T08:11:24;17.30;27.70
1680;DHT22;838;51.794;12.258;2023-09-30T08:13:56;17.20;27.80
1680;DHT22;838;51.794;12.258;2023-09-30T08:16:21;17.20;28.30
1680;DHT22;838;51.794;12.258;2023-09-30T08:18:53;17.40;28.20
1680;DHT22;838;51.794;12.258;2023-09-30T08:21:19;17.90;25.40
1680;DHT22;838;51.794;12.258;2023-09-30T08:23:44;18.30;21.30
1680;DHT22;838;51.794;12.258;2023-09-30T08:26:10;18.20;20.70
1680;DHT22;838;51.794;12.258;2023-09-30T08:28:37;18.20;21.80
1680;DHT22;838;51.794;12.258;2023-09-30T08:31:08;18.30;21.80
1680;DHT22;838;51.794;12.258;2023-09-30T08:33:57;18.90;17.90
1680;DHT22;838;51.794;12.258;2023-09-30T08:36:23;19.70;12.00
1680;DHT22;838;51.794;12.258;2023-09-30T08:38:50;20.20;7.70
1680;DHT22;838;51.794;12.258;2023-09-30T08:41:33;20.40;6.30
1680;DHT22;838;51.794;12.258;2023-09-30T08:44:03;20.40;5.40
1680;DHT22;838;51.794;12.258;2023-09-30T08:46:33;20.30;3.70
1680;DHT22;838;51.794;12.258;2023-09-30T08:49:04;20.20;4.60
1680;DHT22;838;51.794;12.258;2023-09-30T08:51:33;20.30;2.50
1680;DHT22;838;51.794;12.258;2023-09-30T08:54:01;20.20;4.30
1680;DHT22;838;51.794;12.258;2023-09-30T08:56:30;20.60;1.00
1680;DHT22;838;51.794;12.258;2023-09-30T08:58:59;21.20;1.00
1680;DHT22;838;51.794;12.258;2023-09-30T09:01:27;21.50;1.00
1680;DHT22;838;51.794;12.258;2023-09-30T09:03:53;21.50;1.00
1680;DHT22;838;51.794;12.258;2023-09-30T09:06:27;21.30;1.00
1680;DHT22;838;51.794;12.258;2023-09-30T09:08:53;21.90;1.00
1680;DHT22;838;51.794;12.258;2023-09-30T09:11:19;22.00;1.00
1680;DHT22;838;51.794;12.258;2023-09-30T09:13:47;21.80;1.00
1680;DHT22;838;51.794;12.258;2023-09-30T09:16:15;21.30;1.00
1680;DHT22;838;51.794;12.258;2023-09-30T09:18:42;20.90;1.00
1680;DHT22;838;51.794;12.258;2023-09-30T09:21:12;20.90;1.00
1680;DHT22;838;51.794;12.258;2023-09-30T09:23:42;20.80;1.00
1680;DHT22;838;51.794;12.258;2023-09-30T09:26:12;20.60;1.00
1680;DHT22;838;51.794;12.258;2023-09-30T09:28:48;20.20;1.00
1680;DHT22;838;51.794;12.258;2023-09-30T09:31:27;20.30;1.00
1680;DHT22;838;51.794;12.258;2023-09-30T09:33:53;20.00;1.00
1680;DHT22;838;51.794;12.258;2023-09-30T09:36:20;19.60;1.00
1680;DHT22;838;51.794;12.258;2023-09-30T09:38:49;19.60;1.00
1680;DHT22;838;51.794;12.258;2023-09-30T09:41:15;19.60;1.00
1680;DHT22;838;51.794;12.258;2023-09-30T09:43:41;19.60;1.00
1680;DHT22;838;51.794;12.258;2023-09-30T09:46:08;19.70;1.00
1680;DHT22;838;51.794;12.258;2023-09-30T09:48:37;19.80;1.00
1680;DHT22;838;51.794;12.258;2023-09-30T09:51:08;19.50;1.00
1680;DHT22;838;51.794;12.258;2023-09-30T09:53:35;19.40;1.00
1680;DHT22;838;51.794;12.258;2023-09-30T09:56:04;19.60;1.00
1680;DHT22;838;51.794;12.258;2023-09-30T09:58:35;19.70;1.00
1680;DHT22;838;51.794;12.258;2023-09-30T10:01:05;19.70;1.00
1680;DHT22;838;51.794;12.258;2023-09-30T10:03:32;19.70;1.00
1680;DHT22;838;51.794;12.258;2023-09-30T10:05:59;19.50;1.00
1680;DHT22;838;51.794;12.258;2023-09-30T10:08:33;19.40;1.00
1680;DHT22;838;51.794;12.258;2023-09-30T10:11:01;19.50;1.00
1680;DHT22;838;51.794;12.258;2023-09-30T10:19:11;20.40;1.00
1680;DHT22;838;51.794;12.258;2023-09-30T10:21:37;20.20;1.00
1680;DHT22;838;51.794;12.258;2023-09-30T10:40:48;20.90;1.00
1680;DHT22;838;51.794;12.258;2023-09-30T10:43:35;21.10;1.00
1680;DHT22;838;51.794;12.258;2023-09-30T10:46:02;21.40;1.00
1680;DHT22;838;51.794;12.258;2023-09-30T10:50:55;20.90;1.00
1680;DHT22;838;51.794;12.258;2023-09-30T10:57:54;20.40;1.00
1680;DHT22;838;51.794;12.258;2023-09-30T11:00:51;20.30;1.00
1680;DHT22;838;51.794;12.258;2023-09-30T11:03:58;20.50;1.00
1680;DHT22;838;51.794;12.258;2023-09-30T11:06:44;20.50;1.00
1680;DHT22;838;51.794;12.258;2023-09-30T11:09:31;20.60;1.00
1680;DHT22;838;51.794;12.258;2023-09-30T11:12:55;20.70;1.00
1680;DHT22;838;51.794;12.258;2023-09-30T11:15:24;20.80;1.00
1680;DHT22;838;51.794;12.258;2023-09-30T11:18:17;21.10;1.00
1680;DHT22;838;51.794;12.258;2023-09-30T11:20:47;21.20;1.00
1680;DHT22;838;51.794;12.258;2023-09-30T11:26:53;21.60;1.00
1680;DHT22;838;51.794;12.258;2023-09-30T11:33:24;22.00;1.00
1680;DHT22;838;51.794;12.258;2023-09-30T11:36:19;22.00;1.00
1680;DHT22;838;51.794;12.258;2023-09-30T11:38:54;21.80;1.00
1680;DHT22;838;51.794;12.258;2023-09-30T11:41:22;21.60;1.00
1680;DHT22;838;51.794;12.258;2023-09-30T11:44:09;21.60;1.00
1680;DHT22;838;51.794;12.258;2023-09-30T11:46:59;21.60;1.00
1680;DHT22;838;51.794;12.258;2023-09-30T11:52:03;21.40;1.00
1680;DHT22;838;51.794;12.258;2023-09-30T11:54:42;21.40;1.00
1680;DHT22;838;51.794;12.258;2023-09-30T11:57:13;21.60;1.00
1680;DHT22;838;51.794;12.258;2023-09-30T11:59:43;21.10;1.00
1680;DHT22;838;51.794;12.258;2023-09-30T12:02:09;21.00;1.00
1680;DHT22;838;51.794;12.258;2023-09-30T12:04:36;20.70;1.00
1680;DHT22;838;51.794;12.258;2023-09-30T12:07:02;20.60;1.00
1680;DHT22;838;51.794;12.258;2023-09-30T12:09:28;20.60;1.00
1680;DHT22;838;51.794;12.258;2023-09-30T12:11:56;20.80;1.00
1680;DHT22;838;51.794;12.258;2023-09-30T12:14:25;21.10;1.00
1680;DHT22;838;51.794;12.258;2023-09-30T12:16:54;21.30;1.00
1680;DHT22;838;51.794;12.258;2023-09-30T12:19:23;21.60;1.00
1680;DHT22;838;51.794;12.258;2023-09-30T12:21:50;21.60;1.00
1680;DHT22;838;51.794;12.258;2023-09-30T12:24:19;21.30;1.00
1680;DHT22;838;51.794;12.258;2023-09-30T12:26:47;21.10;1.00
1680;DHT22;838;51.794;12.258;2023-09-30T12:29:22;21.10;1.00
1680;DHT22;838;51.794;12.258;2023-09-30T12:31:50;20.90;1.00
1680;DHT22;838;51.794;12.258;2023-09-30T12:34:16;20.70;1.00
1680;DHT22;838;51.794;12.258;2023-09-30T12:36:42;20.70;1.00
1680;DHT22;838;51.794;12.258;2023-09-30T12:39:11;20.80;1.00
1680;DHT22;838;51.794;12.258;2023-09-30T12:41:41;20.90;1.00
1680;DHT22;838;51.794;12.258;2023-09-30T12:44:08;21.10;1.00
1680;DHT22;838;51.794;12.258;2023-09-30T12:46:34;21.20;1.00
1680;DHT22;838;51.794;12.258;2023-09-30T12:49:03;21.60;1.00
1680;DHT22;838;51.794;12.258;2023-09-30T12:51:28;21.90;1.00
1680;DHT22;838;51.794;12.258;2023-09-30T12:53:54;22.20;1.00
1680;DHT22;838;51.794;12.258;2023-09-30T12:56:20;22.50;1.00
1680;DHT22;838;51.794;12.258;2023-09-30T12:58:46;22.50;1.00
1680;DHT22;838;51.794;12.258;2023-09-30T13:01:12;22.10;1.00
1680;DHT22;838;51.794;12.258;2023-09-30T13:03:38;21.90;1.00
1680;DHT22;838;51.794;12.258;2023-09-30T13:06:04;21.30;1.00
1680;DHT22;838;51.794;12.258;2023-09-30T13:08:30;20.80;1.00
1680;DHT22;838;51.794;12.258;2023-09-30T13:11:00;20.60;1.00
1680;DHT22;838;51.794;12.258;2023-09-30T13:13:29;20.40;1.00
1680;DHT22;838;51.794;12.258;2023-09-30T13:16:02;20.50;1.00
1680;DHT22;838;51.794;12.258;2023-09-30T13:18:37;20.70;1.00
1680;DHT22;838;51.794;12.258;2023-09-30T13:21:06;21.10;1.00
1680;DHT22;838;51.794;12.258;2023-09-30T13:23:42;21.40;1.00
1680;DHT22;838;51.794;12.258;2023-09-30T13:26:07;21.70;1.00
1680;DHT22;838;51.794;12.258;2023-09-30T13:28:33;21.90;1.00
1680;DHT22;838;51.794;12.258;2023-09-30T13:30:59;22.10;1.00
1680;DHT22;838;51.794;12.258;2023-09-30T13:33:25;22.40;1.00
1680;DHT22;838;51.794;12.258;2023-09-30T13:35:51;22.20;1.00
1680;DHT22;838;51.794;12.258;2023-09-30T13:38:17;22.20;1.00
1680;DHT22;838;51.794;12.258;2023-09-30T13:40:43;22.20;1.00
1680;DHT22;838;51.794;12.258;2023-09-30T13:43:09;22.20;1.00
1680;DHT22;838;51.794;12.258;2023-09-30T13:45:36;22.60;1.00
1680;DHT22;838;51.794;12.258;2023-09-30T13:48:10;22.40;1.00
1680;DHT22;838;51.794;12.258;2023-09-30T13:50:38;22.10;1.00
1680;DHT22;838;51.794;12.258;2023-09-30T13:53:04;22.10;1.00
1680;DHT22;838;51.794;12.258;2023-09-30T13:55:32;21.70;1.00
1680;DHT22;838;51.794;12.258;2023-09-30T13:57:58;21.30;1.00
1680;DHT22;838;51.794;12.258;2023-09-30T14:00:24;21.10;1.00
1680;DHT22;838;51.794;12.258;2023-09-30T14:02:49;20.80;1.00
1680;DHT22;838;51.794;12.258;2023-09-30T14:05:16;20.60;1.00
1680;DHT22;838;51.794;12.258;2023-09-30T14:07:42;20.60;1.00
1680;DHT22;838;51.794;12.258;2023-09-30T14:10:09;20.60;1.00
1680;DHT22;838;51.794;12.258;2023-09-30T14:12:39;20.70;1.00
1680;DHT22;838;51.794;12.258;2023-09-30T14:15:05;20.90;1.00
1680;DHT22;838;51.794;12.258;2023-09-30T14:17:31;20.90;1.00
1680;DHT22;838;51.794;12.258;2023-09-30T14:20:04;21.20;1.00
1680;DHT22;838;51.794;12.258;2023-09-30T14:22:33;21.20;1.00
1680;DHT22;838;51.794;12.258;2023-09-30T14:25:00;21.20;1.00
1680;DHT22;838;51.794;12.258;2023-09-30T14:27:26;21.30;1.00
1680;DHT22;838;51.794;12.258;2023-09-30T14:29:52;21.40;1.00
1680;DHT22;838;51.794;12.258;2023-09-30T14:32:18;21.30;1.00
1680;DHT22;838;51.794;12.258;2023-09-30T14:34:44;21.20;1.00
1680;DHT22;838;51.794;12.258;2023-09-30T14:37:19;21.20;1.00
1680;DHT22;838;51.794;12.258;2023-09-30T14:39:45;21.10;1.00
1680;DHT22;838;51.794;12.258;2023-09-30T14:42:11;21.10;1.00
1680;DHT22;838;51.794;12.258;2023-09-30T14:44:39;21.00;1.00
1680;DHT22;838;51.794;12.258;2023-09-30T14:47:06;20.80;1.00
1680;DHT22;838;51.794;12.258;2023-09-30T14:49:32;20.60;1.00
1680;DHT22;838;51.794;12.258;2023-09-30T14:51:57;20.70;1.00
1680;DHT22;838;51.794;12.258;2023-09-30T14:54:24;20.70;1.00
1680;DHT22;838;51.794;12.258;2023-09-30T14:56:55;21.00;1.00
1680;DHT22;838;51.794;12.258;2023-09-30T14:59:21;21.10;1.00
1680;DHT22;838;51.794;12.258;2023-09-30T15:01:47;21.10;1.00
1680;DHT22;838;51.794;12.258;2023-09-30T15:04:18;20.90;1.00
1680;DHT22;838;51.794;12.258;2023-09-30T15:06:44;21.10;1.00
1680;DHT22;838;51.794;12.258;2023-09-30T15:09:11;21.20;1.00
1680;DHT22;838;51.794;12.258;2023-09-30T15:11:40;21.50;1.00
1680;DHT22;838;51.794;12.258;2023-09-30T15:14:06;21.70;1.00
1680;DHT22;838;51.794;12.258;2023-09-30T15:16:32;21.60;1.00
1680;DHT22;838;51.794;12.258;2023-09-30T15:18:58;21.40;1.00
1680;DHT22;838;51.794;12.258;2023-09-30T15:21:32;21.20;1.00
1680;DHT22;838;51.794;12.258;2023-09-30T15:23:58;21.10;1.00
1680;DHT22;838;51.794;12.258;2023-09-30T15:26:29;21.00;1.00
1680;DHT22;838;51.794;12.258;2023-09-30T15:28:57;21.00;1.00
1680;DHT22;838;51.794;12.258;2023-09-30T15:31:30;20.90;1.00
1680;DHT22;838;51.794;12.258;2023-09-30T15:34:02;20.80;1.00
1680;DHT22;838;51.794;12.258;2023-09-30T15:36:28;20.80;1.00
1680;DHT22;838;51.794;12.258;2023-09-30T15:38:57;20.80;1.00
1680;DHT22;838;51.794;12.258;2023-09-30T15:44:05;20.60;1.00
1680;DHT22;838;51.794;12.258;2023-09-30T15:46:31;20.50;1.00
1680;DHT22;838;51.794;12.258;2023-09-30T15:48:58;20.50;1.00
1680;DHT22;838;51.794;12.258;2023-09-30T15:51:29;20.20;1.00
1680;DHT22;838;51.794;12.258;2023-09-30T15:54:01;20.10;1.00
1680;DHT22;838;51.794;12.258;2023-09-30T15:56:27;20.00;1.00
1680;DHT22;838;51.794;12.258;2023-09-30T15:58:59;20.10;1.00
1680;DHT22;838;51.794;12.258;2023-09-30T16:01:34;20.10;1.00
1680;DHT22;838;51.794;12.258;2023-09-30T16:04:00;20.10;1.00
1680;DHT22;838;51.794;12.258;2023-09-30T16:06:26;20.20;1.00
1680;DHT22;838;51.794;12.258;2023-09-30T16:08:52;20.10;1.00
1680;DHT22;838;51.794;12.258;2023-09-30T16:11:28;20.30;1.00
1680;DHT22;838;51.794;12.258;2023-09-30T16:13:54;20.40;1.00
1680;DHT22;838;51.794;12.258;2023-09-30T16:16:20;20.50;1.00
1680;DHT22;838;51.794;12.258;2023-09-30T16:18:49;20.70;1.00
1680;DHT22;838;51.794;12.258;2023-09-30T16:21:18;20.70;1.00
1680;DHT22;838;51.794;12.258;2023-09-30T16:23:45;20.70;1.00
1680;DHT22;838;51.794;12.258;2023-09-30T16:26:16;20.90;1.00
1680;DHT22;838;51.794;12.258;2023-09-30T16:28:42;21.20;1.00
1680;DHT22;838;51.794;12.258;2023-09-30T16:31:07;21.40;1.00
1680;DHT22;838;51.794;12.258;2023-09-30T16:33:33;21.50;1.00
1680;DHT22;838;51.794;12.258;2023-09-30T16:36:04;21.60;1.00
1680;DHT22;838;51.794;12.258;2023-09-30T16:38:30;21.60;1.00
1680;DHT22;838;51.794;12.258;2023-09-30T16:40:57;21.60;1.00
1680;DHT22;838;51.794;12.258;2023-09-30T16:43:23;21.40;1.00
1680;DHT22;838;51.794;12.258;2023-09-30T16:45:49;21.20;1.00
1680;DHT22;838;51.794;12.258;2023-09-30T16:48:15;21.10;1.00
1680;DHT22;838;51.794;12.258;2023-09-30T16:50:45;21.00;1.00
1680;DHT22;838;51.794;12.258;2023-09-30T16:53:11;20.90;1.00
1680;DHT22;838;51.794;12.258;2023-09-30T16:55:37;20.70;1.00
1680;DHT22;838;51.794;12.258;2023-09-30T16:58:04;20.60;1.00
1680;DHT22;838;51.794;12.258;2023-09-30T17:00:30;20.40;1.00